Sunday, July 22, 2018, 2:22 AM EDT
Back to Local

KIPT, Williamsport-lycoming County

Location: Montoursville, PA, United States Lat: 41.25
Local Time: 2:22 AM EDT ( 6:22 GMT) Lon: -76.917
Time Zone: US/Eastern Elev: 528 ft

Show me the last for .
Show Decoded

2018-07-22 01:54 METAR KIPT 220554Z AUTO 27005KT 6SM RA BR OVC020 16/15 A2976 RMK AO2 SLP076
                 P0009 60098 T01610150 10178 20161 58037 =
2018-07-22 00:54 METAR KIPT 220454Z AUTO 28003KT 5SM RA BR FEW007 OVC019 16/15 A2980 RMK AO2
                 SLP090 P0016 T01610150 402390161 =
2018-07-21 23:54 METAR KIPT 220354Z AUTO 00000KT 5SM RA BR SCT005 BKN018 OVC024 16/15 A2984 RMK
                 AO2 SLP101 P0020 T01610150 =
2018-07-21 23:44 METAR KIPT 220344Z AUTO 00000KT 4SM RA BR FEW006 BKN019 OVC023 16/15 A2985 RMK
                 AO2 P0017 T01610150 =
2018-07-21 23:22 METAR KIPT 220322Z AUTO 25003KT 6SM -RA BR OVC019 16/15 A2986 RMK AO2 P0013
                 T01610150 =
2018-07-21 23:10 METAR KIPT 220310Z AUTO 00000KT 2SM +RA BR SCT011 OVC017 16/15 A2987 RMK AO2
                 P0009 T01610150 =
2018-07-21 23:02 METAR KIPT 220302Z AUTO 00000KT 3SM +RA BR SCT011 OVC017 16/15 A2987 RMK AO2
                 P0004 T01610150 =
2018-07-21 22:54 METAR KIPT 220254Z AUTO 00000KT 3SM +RA BR BKN011 OVC019 16/15 A2988 RMK AO2
                 SLP114 P0028 60053 T01610150 58025 =
2018-07-21 22:47 METAR KIPT 220247Z AUTO 23003KT 3SM RA BR OVC016 16/15 A2988 RMK AO2 P0026
                 T01610150 =
2018-07-21 22:37 METAR KIPT 220237Z AUTO 00000KT 2SM +RA BR BKN013 OVC018 17/16 A2988 RMK AO2
                 P0020 T01670156 =
2018-07-21 22:10 METAR KIPT 220210Z 00000KT 3SM RA BR BKN022 OVC027 16/16 A2990 RMK AO2 P0011
                 T01610156 =
2018-07-21 22:02 METAR KIPT 220202Z 00000KT 1 3/4SM +RA BR BKN023 OVC028 16/15 A2990 RMK AO2
                 P0006 T01610150 =
2018-07-21 21:54 METAR KIPT 220154Z 00000KT 4SM RA BR OVC026 17/16 A2991 RMK AO2 SLP124 P0012
                 T01670156 =
2018-07-21 21:08 METAR KIPT 220108Z 00000KT 10SM -RA BKN024 OVC034 17/15 A2993 RMK AO2 P0000
                 T01670150 =
2018-07-21 20:54 METAR KIPT 220054Z 06004KT 10SM -RA FEW024 OVC037 17/15 A2993 RMK AO2 SLP133
                 P0013 T01670150 =
2018-07-21 20:02 METAR KIPT 220002Z 05004KT 5SM RA BR FEW011 SCT022 OVC042 18/16 A2995 RMK AO2
                 P0002 T01780161 =
2018-07-21 19:54 METAR KIPT 212354Z 06005KT 5SM RA BR FEW009 BKN028 OVC042 18/16 A2995 RMK AO2
                 SLP140 P0024 60058 T01780161 10206 20172 58008 =
2018-07-21 19:41 METAR KIPT 212341Z 10003KT 3SM RA BR SCT007 BKN011 OVC025 17/16 A2995 RMK AO2
                 P0022 T01720161 =
2018-07-21 19:30 METAR KIPT 212330Z VRB04KT 1SM +RA BR SCT007 BKN013 OVC036 17/16 A2995 RMK AO2
                 P0012 T01720161 =
2018-07-21 19:25 METAR KIPT 212325Z 00000KT 2SM +RA BR BKN007 BKN018 OVC055 17/16 A2996 RMK AO2
                 P0007 T01720161 =
2018-07-21 19:17 METAR KIPT 212317Z 16003KT 2 1/2SM RA BR SCT007 BKN022 OVC050 18/16 A2996 RMK
                 AO2 P0005 T01780161 =
2018-07-21 19:15 METAR KIPT 212315Z 00000KT 3SM RA BR SCT007 BKN036 OVC050 18/16 A2996 RMK AO2
                 P0004 T01780161 =
2018-07-21 18:54 METAR KIPT 212254Z 00000KT 5SM -RA BR FEW027 SCT037 OVC050 18/16 A2996 RMK AO2
                 SLP142 P0009 T01780161 =
2018-07-21 17:54 METAR KIPT 212154Z 09003KT 8SM -RA BKN055 OVC070 18/16 A2997 RMK AO2 SLP147
                 P0009 T01830156 =
2018-07-21 16:54 METAR KIPT 212054Z 09003KT 10SM -RA OVC110 19/16 A2998 RMK AO2 SLP148 P0007
                 60016 T01890161 58004 =
2018-07-21 16:02 METAR KIPT 212002Z 08006KT 6SM RA BR FEW026 BKN090 OVC110 19/17 A2998 RMK AO2
                 P0002 T01940172 =
2018-07-21 15:54 METAR KIPT 211954Z 08006KT 6SM RA BR BKN029 BKN055 OVC100 19/17 A2998 RMK AO2
                 SLP149 P0006 T01940172 =
2018-07-21 14:54 METAR KIPT 211854Z 09005KT 9SM -RA SCT070 OVC090 19/17 A2999 RMK AO2 SLP152
                 P0003 T01940172 =
2018-07-21 13:54 METAR KIPT 211754Z 10010KT 10SM -RA FEW042 BKN110 21/17 A2999 RMK AO2 RAB07
                 SLP152 P0000 60000 T02060167 10239 20200 57009 =
2018-07-21 12:54 METAR KIPT 211654Z 12012G17KT 10SM BKN038 OVC110 23/16 A3000 RMK AO2 RAE29
                 SLP154 P0000 T02280156 =
2018-07-21 11:54 METAR KIPT 211554Z 10008KT 10SM -RA SCT034 BKN044 OVC100 22/15 A3001 RMK AO2
                 RAB52 SLP157 P0000 T02220150 =
2018-07-21 10:54 METAR KIPT 211454Z 10010KT 10SM SCT027 22/15 A3001 RMK AO2 SLP160 T02220150
                 58000 =
2018-07-21 09:54 METAR KIPT 211354Z 11012G17KT 10SM SCT027 22/15 A3002 RMK AO2 SLP163 T02170150 =
2018-07-21 08:54 METAR KIPT 211254Z 11009KT 10SM FEW027 SCT038 21/15 A3002 RMK AO2 SLP163
                 T02110150 =
2018-07-21 07:54 METAR KIPT 211154Z 10011KT 10SM SCT046 21/15 A3001 RMK AO2 SLP161 T02060150
                 10206 20189 55001 =
2018-07-21 06:54 METAR KIPT 211054Z 10011KT 10SM SCT046 19/14 A3001 RMK AO2 SLP159 T01890144 =
2018-07-21 05:54 METAR KIPT 210954Z AUTO 09007KT 10SM FEW026 SCT040 19/14 A3001 RMK AO2 SLP160
                 T01940144 =
2018-07-21 05:26 METAR KIPT 210926Z AUTO 11007KT 10SM SCT027 SCT036 BKN042 19/14 A3002 RMK AO2
                 T01940144 =
2018-07-21 05:01 METAR KIPT 210901Z AUTO 08006KT 10SM BKN027 BKN034 19/14 A3002 RMK AO2 T01940144
                 =
2018-07-21 04:54 METAR KIPT 210854Z AUTO 08007KT 10SM SCT027 BKN034 BKN041 19/14 A3002 RMK AO2
                 SLP160 T01940144 58007 =
2018-07-21 04:39 METAR KIPT 210839Z AUTO 08008KT 10SM SCT027 BKN039 BKN049 19/14 A3002 RMK AO2
                 T01940144 =
2018-07-21 03:54 METAR KIPT 210754Z AUTO 07007KT 10SM BKN027 BKN037 20/14 A3002 RMK AO2 SLP163
                 T02000144 =
2018-07-21 02:54 METAR KIPT 210654Z AUTO 10006KT 10SM CLR 20/14 A3003 RMK AO2 SLP166 T02000144 =

Support USWX by starting your Amazon purchase here.